Time;durP1;ratioP1;P1;durP2;ratioP2;P2;SDS_P1;SDS_P2;PMS_P1;PMS_P2;Temp;Humidity;BMP_temperature;BMP_pressure;BME280_temperature;BME280_humidity;BME280_pressure;Samples;Min_cycle;Max_cycle;Signal;HPM_P1;HPM_P2
2022/03/13 19:25:14;;;;;;;7.05;3.40;;;;;;;;;;7294532;19;20263;-75
2022/03/13 19:27:42;;;;;;;6.57;3.47;;;;;;;;;;7351572;19;20014;-76
2022/03/13 19:30:08;;;;;;;6.50;3.10;;;;;;;;;;7366853;19;20637;-77
2022/03/13 19:32:34;;;;;;;7.40;2.90;;;;;;;;;;7354936;19;20078;-75
2022/03/13 19:34:59;;;;;;;5.43;2.88;;;;;;;;;;7370712;19;20665;-79
2022/03/13 19:37:25;;;;;;;6.00;2.90;;;;;;;;;;7342912;19;20614;-75
2022/03/13 19:39:50;;;;;;;6.38;3.25;;;;;;;;;;7350129;19;20093;-77
2022/03/13 19:42:15;;;;;;;5.75;2.55;;;;;;;;;;7361320;19;20807;-76
2022/03/13 19:44:41;;;;;;;5.72;2.90;;;;;;;;;;7370841;19;20014;-76
2022/03/13 19:47:10;;;;;;;6.50;2.90;;;;;;;;;;7364803;19;20341;-77
2022/03/13 19:49:35;;;;;;;6.63;3.00;;;;;;;;;;7367282;19;20541;-76
2022/03/13 19:52:01;;;;;;;6.55;3.10;;;;;;;;;;7365312;19;20175;-76
2022/03/13 19:54:26;;;;;;;11.13;3.00;;;;;;;;;;7351510;19;20014;-79
2022/03/13 19:56:51;;;;;;;11.02;2.72;;;;;;;;;;7356913;19;19999;-75
2022/03/13 19:59:17;;;;;;;9.20;3.30;;;;;;;;;;7371038;19;20011;-76
2022/03/13 20:01:42;;;;;;;5.88;2.67;;;;;;;;;;7363303;19;20339;-80
2022/03/13 20:04:08;;;;;;;6.93;3.17;;;;;;;;;;7368103;19;20030;-77
2022/03/13 20:06:34;;;;;;;7.82;3.42;;;;;;;;;;7365773;19;20462;-76
2022/03/13 20:08:59;;;;;;;15.18;8.73;;;;;;;;;;7369124;19;20741;-78
2022/03/13 20:11:25;;;;;;;5.78;2.80;;;;;;;;;;7339406;19;20019;-77
2022/03/13 20:13:51;;;;;;;10.38;4.20;;;;;;;;;;7362791;19;20018;-75
2022/03/13 20:16:17;;;;;;;5.88;3.00;;;;;;;;;;7358878;19;20014;-77
2022/03/13 20:18:42;;;;;;;10.15;5.38;;;;;;;;;;7370084;19;20384;-74
2022/03/13 20:21:08;;;;;;;12.20;5.70;;;;;;;;;;7368244;19;20007;-75
2022/03/13 20:23:33;;;;;;;6.30;3.15;;;;;;;;;;7348601;19;20295;-76
2022/03/13 20:25:58;;;;;;;5.88;2.95;;;;;;;;;;7330212;19;20113;-77
2022/03/13 20:28:23;;;;;;;6.90;3.05;;;;;;;;;;7361962;19;20568;-78
2022/03/13 20:30:49;;;;;;;5.97;3.00;;;;;;;;;;7348880;19;20526;-76
2022/03/13 20:33:15;;;;;;;6.20;2.80;;;;;;;;;;7364708;19;20014;-75
2022/03/13 20:35:40;;;;;;;7.03;2.88;;;;;;;;;;7361999;19;19991;-74
2022/03/13 20:38:07;;;;;;;6.07;2.80;;;;;;;;;;7360399;19;20015;-78
2022/03/13 20:40:34;;;;;;;7.13;2.80;;;;;;;;;;7355530;19;20021;-77
2022/03/13 20:42:59;;;;;;;6.65;3.15;;;;;;;;;;7359541;19;20490;-75
2022/03/13 20:45:24;;;;;;;5.93;2.90;;;;;;;;;;7360470;19;20029;-80
2022/03/13 20:47:49;;;;;;;7.50;2.80;;;;;;;;;;7364201;19;20278;-75
2022/03/13 20:50:15;;;;;;;6.60;3.33;;;;;;;;;;7302500;19;20023;-85
2022/03/13 20:52:40;;;;;;;8.95;3.30;;;;;;;;;;7357712;19;20002;-76
2022/03/13 20:55:05;;;;;;;5.43;2.70;;;;;;;;;;7353172;19;20006;-76
2022/03/13 20:57:31;;;;;;;7.75;3.10;;;;;;;;;;7332129;19;20026;-76
2022/03/13 20:59:56;;;;;;;6.45;3.20;;;;;;;;;;7360418;19;20082;-76
2022/03/13 21:02:21;;;;;;;7.47;3.05;;;;;;;;;;7345090;19;20015;-76
2022/03/13 21:04:46;;;;;;;5.70;3.00;;;;;;;;;;7320114;19;20481;-76
2022/03/13 21:07:12;;;;;;;6.45;2.80;;;;;;;;;;7351865;19;20014;-75
2022/03/13 21:09:38;;;;;;;6.78;2.95;;;;;;;;;;7332878;19;20011;-77
2022/03/13 21:12:03;;;;;;;5.55;2.60;;;;;;;;;;7347145;19;20016;-78
2022/03/13 21:14:29;;;;;;;6.32;3.15;;;;;;;;;;7371105;19;20011;-79
2022/03/13 21:16:55;;;;;;;6.10;3.13;;;;;;;;;;7356747;19;20473;-79
2022/03/13 21:19:21;;;;;;;6.43;2.70;;;;;;;;;;7365145;19;20025;-80
2022/03/13 21:21:48;;;;;;;5.38;2.53;;;;;;;;;;7374248;19;20013;-82
2022/03/13 21:24:14;;;;;;;5.38;2.70;;;;;;;;;;7362273;19;20017;-81
2022/03/13 21:26:40;;;;;;;5.93;2.97;;;;;;;;;;7299222;19;20371;-88
2022/03/13 21:29:08;;;;;;;5.25;2.22;;;;;;;;;;7354793;19;19999;-88
2022/03/13 21:31:34;;;;;;;7.00;3.13;;;;;;;;;;7353682;19;20010;-90
2022/03/13 21:33:59;;;;;;;7.10;3.28;;;;;;;;;;7356407;19;19995;-89
2022/03/13 21:36:24;;;;;;;6.75;3.00;;;;;;;;;;7364804;19;20349;-90
2022/03/13 21:38:50;;;;;;;5.72;2.63;;;;;;;;;;7368353;19;19999;-87
2022/03/13 21:41:15;;;;;;;5.70;3.07;;;;;;;;;;7364409;19;20085;-87
2022/03/13 21:43:40;;;;;;;7.53;3.03;;;;;;;;;;7358822;19;20768;-88
2022/03/13 21:46:05;;;;;;;7.63;4.00;;;;;;;;;;7366945;19;20003;-88
2022/03/13 21:48:31;;;;;;;8.00;3.92;;;;;;;;;;7367204;19;20006;-87
2022/03/13 21:50:56;;;;;;;7.03;3.40;;;;;;;;;;7366521;19;20003;-89
2022/03/13 21:53:21;;;;;;;7.95;3.95;;;;;;;;;;7367309;19;20006;-89
2022/03/13 21:55:46;;;;;;;7.60;3.77;;;;;;;;;;7373090;19;20066;-87
2022/03/13 21:58:11;;;;;;;7.63;3.30;;;;;;;;;;7359389;19;21088;-88
2022/03/13 22:00:37;;;;;;;7.93;3.40;;;;;;;;;;7351109;19;20289;-88
2022/03/13 22:03:02;;;;;;;7.47;3.80;;;;;;;;;;7368926;19;20003;-88
2022/03/13 22:05:30;;;;;;;7.60;3.35;;;;;;;;;;7366570;19;20267;-87
2022/03/13 22:07:55;;;;;;;6.80;3.20;;;;;;;;;;7370162;19;20007;-88
2022/03/13 22:10:21;;;;;;;7.13;3.63;;;;;;;;;;7372507;19;20014;-87
2022/03/13 22:12:52;;;;;;;6.70;3.50;;;;;;;;;;7375705;19;19998;-90
2022/03/13 22:15:17;;;;;;;8.43;4.15;;;;;;;;;;7363373;19;20011;-89
2022/03/13 22:17:43;;;;;;;9.52;4.47;;;;;;;;;;7374023;19;20018;-88
2022/03/13 22:20:08;;;;;;;9.43;4.65;;;;;;;;;;7362120;19;20015;-88
2022/03/13 22:22:34;;;;;;;10.30;4.88;;;;;;;;;;7368776;19;20023;-90
2022/03/13 22:24:59;;;;;;;12.98;4.50;;;;;;;;;;7365853;19;20047;-89
2022/03/13 22:27:24;;;;;;;9.77;4.50;;;;;;;;;;7363665;19;20025;-89
2022/03/13 22:29:50;;;;;;;7.70;3.95;;;;;;;;;;7356442;19;20026;-88
2022/03/13 22:32:16;;;;;;;7.57;3.88;;;;;;;;;;7332402;19;20858;-90
2022/03/13 22:34:41;;;;;;;9.35;4.70;;;;;;;;;;7356693;19;20018;-88
2022/03/13 22:37:06;;;;;;;8.98;4.35;;;;;;;;;;7365182;19;20006;-87
2022/03/13 22:39:31;;;;;;;7.90;4.60;;;;;;;;;;7368540;19;20716;-88
2022/03/13 22:41:57;;;;;;;7.88;4.38;;;;;;;;;;7364056;19;20251;-89
2022/03/13 22:44:22;;;;;;;8.45;4.90;;;;;;;;;;7368649;19;19995;-88
2022/03/13 22:46:48;;;;;;;8.88;4.68;;;;;;;;;;7372645;19;19999;-87
2022/03/13 22:49:15;;;;;;;7.40;4.45;;;;;;;;;;7368176;19;20034;-86
2022/03/13 22:51:41;;;;;;;9.68;5.05;;;;;;;;;;7367844;19;19999;-91
2022/03/13 22:54:09;;;;;;;9.05;4.65;;;;;;;;;;7369056;19;20018;-90
2022/03/13 22:56:49;;;;;;;9.35;5.28;;;;;;;;;;7361084;19;20017;-87
2022/03/13 22:59:14;;;;;;;13.70;5.18;;;;;;;;;;7371203;19;20481;-88
2022/03/13 23:01:40;;;;;;;12.95;6.63;;;;;;;;;;7313465;19;20018;-91
2022/03/13 23:04:07;;;;;;;10.60;6.15;;;;;;;;;;7342396;19;20476;-90
2022/03/13 23:06:32;;;;;;;9.95;5.78;;;;;;;;;;7352509;19;20016;-89
2022/03/13 23:08:57;;;;;;;11.77;6.05;;;;;;;;;;7364563;19;20074;-87
2022/03/13 23:11:23;;;;;;;12.10;6.65;;;;;;;;;;7362095;19;20019;-89
2022/03/13 23:13:49;;;;;;;13.20;6.32;;;;;;;;;;7371819;19;19998;-90
2022/03/13 23:16:15;;;;;;;11.35;5.75;;;;;;;;;;7364652;19;20014;-87
2022/03/13 23:18:41;;;;;;;10.55;6.10;;;;;;;;;;7368648;19;20025;-90
2022/03/13 23:21:10;;;;;;;10.38;5.72;;;;;;;;;;7361696;19;20470;-88
2022/03/13 23:23:35;;;;;;;9.27;5.78;;;;;;;;;;7375644;19;20019;-87
2022/03/13 23:26:01;;;;;;;10.68;5.82;;;;;;;;;;7373397;19;20010;-88
2022/03/13 23:28:28;;;;;;;10.55;5.88;;;;;;;;;;7371383;19;20086;-89
2022/03/13 23:30:53;;;;;;;10.95;5.35;;;;;;;;;;7363209;19;20022;-88
2022/03/13 23:33:19;;;;;;;11.48;6.60;;;;;;;;;;7373007;19;20002;-89
2022/03/13 23:35:44;;;;;;;8.95;5.03;;;;;;;;;;7367720;19;20254;-90
2022/03/13 23:38:10;;;;;;;11.27;6.45;;;;;;;;;;7363104;19;20479;-87
2022/03/13 23:40:36;;;;;;;10.20;5.57;;;;;;;;;;7370607;19;20003;-88
2022/03/13 23:43:02;;;;;;;9.88;5.50;;;;;;;;;;7370516;19;19995;-90
2022/03/13 23:45:27;;;;;;;8.82;5.55;;;;;;;;;;7371274;19;20331;-87
2022/03/13 23:47:53;;;;;;;7.85;4.78;;;;;;;;;;7369196;19;20011;-86
2022/03/13 23:50:18;;;;;;;9.68;5.20;;;;;;;;;;7365883;19;20007;-89
2022/03/13 23:52:44;;;;;;;9.27;5.45;;;;;;;;;;7374354;19;19991;-88
2022/03/13 23:55:09;;;;;;;10.57;5.97;;;;;;;;;;7371923;19;20009;-90
2022/03/13 23:57:34;;;;;;;9.05;5.53;;;;;;;;;;7372563;19;20279;-90
2022/03/13 23:59:59;;;;;;;9.88;6.00;;;;;;;;;;7370003;19;20010;-89
